sensor_id;sensor_type;location;lat;lon;timestamp;P1;durP1;ratioP1;P2;durP2;ratioP2
24216;SDS011;12356;49.386;8.688;2022-09-13T00:00:54;6.32;;;3.90;;
24216;SDS011;12356;49.386;8.688;2022-09-13T00:03:25;4.15;;;3.72;;
24216;SDS011;12356;49.386;8.688;2022-09-13T00:05:56;8.02;;;3.75;;
24216;SDS011;12356;49.386;8.688;2022-09-13T00:08:27;4.07;;;3.38;;
24216;SDS011;12356;49.386;8.688;2022-09-13T00:10:57;3.97;;;3.58;;
24216;SDS011;12356;49.386;8.688;2022-09-13T00:13:28;4.53;;;3.50;;
24216;SDS011;12356;49.386;8.688;2022-09-13T00:15:59;5.10;;;3.50;;
24216;SDS011;12356;49.386;8.688;2022-09-13T00:18:32;3.60;;;3.22;;
24216;SDS011;12356;49.386;8.688;2022-09-13T00:21:04;10.63;;;3.83;;
24216;SDS011;12356;49.386;8.688;2022-09-13T00:23:36;5.85;;;3.78;;
24216;SDS011;12356;49.386;8.688;2022-09-13T00:26:08;3.90;;;3.50;;
24216;SDS011;12356;49.386;8.688;2022-09-13T00:28:40;4.78;;;3.78;;
24216;SDS011;12356;49.386;8.688;2022-09-13T00:31:12;5.63;;;3.80;;
24216;SDS011;12356;49.386;8.688;2022-09-13T00:33:42;6.18;;;3.67;;
24216;SDS011;12356;49.386;8.688;2022-09-13T00:36:13;4.00;;;3.53;;
24216;SDS011;12356;49.386;8.688;2022-09-13T00:38:47;6.28;;;3.60;;
24216;SDS011;12356;49.386;8.688;2022-09-13T00:41:18;9.10;;;3.53;;
24216;SDS011;12356;49.386;8.688;2022-09-13T00:43:53;7.22;;;3.80;;
24216;SDS011;12356;49.386;8.688;2022-09-13T00:46:47;6.40;;;3.30;;
24216;SDS011;12356;49.386;8.688;2022-09-13T00:49:30;3.53;;;3.10;;
24216;SDS011;12356;49.386;8.688;2022-09-13T00:52:06;4.03;;;3.35;;
24216;SDS011;12356;49.386;8.688;2022-09-13T00:54:41;7.00;;;3.45;;
24216;SDS011;12356;49.386;8.688;2022-09-13T00:57:19;3.83;;;3.28;;
24216;SDS011;12356;49.386;8.688;2022-09-13T01:00:00;4.43;;;3.13;;
24216;SDS011;12356;49.386;8.688;2022-09-13T01:02:45;4.07;;;3.38;;
24216;SDS011;12356;49.386;8.688;2022-09-13T01:05:26;4.47;;;3.22;;
24216;SDS011;12356;49.386;8.688;2022-09-13T01:08:04;5.43;;;3.33;;
24216;SDS011;12356;49.386;8.688;2022-09-13T01:10:41;5.30;;;3.28;;
24216;SDS011;12356;49.386;8.688;2022-09-13T01:13:15;3.55;;;3.22;;
24216;SDS011;12356;49.386;8.688;2022-09-13T01:15:49;4.68;;;3.15;;
24216;SDS011;12356;49.386;8.688;2022-09-13T01:18:21;5.55;;;3.33;;
24216;SDS011;12356;49.386;8.688;2022-09-13T01:32:31;6.13;;;3.67;;
24216;SDS011;12356;49.386;8.688;2022-09-13T01:35:21;7.32;;;3.53;;
24216;SDS011;12356;49.386;8.688;2022-09-13T01:38:18;5.13;;;3.55;;
24216;SDS011;12356;49.386;8.688;2022-09-13T01:43:41;6.63;;;3.25;;
24216;SDS011;12356;49.386;8.688;2022-09-13T01:46:17;5.10;;;3.80;;
24216;SDS011;12356;49.386;8.688;2022-09-13T01:48:54;4.93;;;3.35;;
24216;SDS011;12356;49.386;8.688;2022-09-13T01:51:30;5.22;;;3.53;;
24216;SDS011;12356;49.386;8.688;2022-09-13T01:54:09;4.00;;;3.55;;
24216;SDS011;12356;49.386;8.688;2022-09-13T01:59:48;5.07;;;3.72;;
24216;SDS011;12356;49.386;8.688;2022-09-13T02:05:11;6.93;;;3.80;;
24216;SDS011;12356;49.386;8.688;2022-09-13T02:11:10;6.07;;;3.60;;
24216;SDS011;12356;49.386;8.688;2022-09-13T02:13:53;3.88;;;3.55;;
24216;SDS011;12356;49.386;8.688;2022-09-13T02:16:38;5.38;;;4.05;;
24216;SDS011;12356;49.386;8.688;2022-09-13T02:19:13;4.72;;;3.78;;
24216;SDS011;12356;49.386;8.688;2022-09-13T02:21:56;5.43;;;3.80;;
24216;SDS011;12356;49.386;8.688;2022-09-13T02:24:36;6.35;;;4.00;;
24216;SDS011;12356;49.386;8.688;2022-09-13T02:27:12;4.00;;;3.53;;
24216;SDS011;12356;49.386;8.688;2022-09-13T02:29:49;9.45;;;3.88;;
24216;SDS011;12356;49.386;8.688;2022-09-13T02:35:07;5.72;;;3.72;;
24216;SDS011;12356;49.386;8.688;2022-09-13T02:37:51;7.50;;;3.90;;
24216;SDS011;12356;49.386;8.688;2022-09-13T02:40:28;8.32;;;3.65;;
24216;SDS011;12356;49.386;8.688;2022-09-13T02:43:04;5.75;;;3.65;;
24216;SDS011;12356;49.386;8.688;2022-09-13T02:48:46;4.93;;;3.78;;
24216;SDS011;12356;49.386;8.688;2022-09-13T02:56:38;5.10;;;4.07;;
24216;SDS011;12356;49.386;8.688;2022-09-13T02:59:16;4.53;;;3.63;;
24216;SDS011;12356;49.386;8.688;2022-09-13T03:02:05;4.95;;;4.30;;
24216;SDS011;12356;49.386;8.688;2022-09-13T03:04:41;9.90;;;4.65;;
24216;SDS011;12356;49.386;8.688;2022-09-13T03:07:13;4.53;;;3.75;;
24216;SDS011;12356;49.386;8.688;2022-09-13T03:10:03;7.20;;;4.03;;
24216;SDS011;12356;49.386;8.688;2022-09-13T03:12:53;4.95;;;4.10;;
24216;SDS011;12356;49.386;8.688;2022-09-13T03:15:57;8.80;;;3.88;;
24216;SDS011;12356;49.386;8.688;2022-09-13T03:24:23;6.10;;;3.55;;
24216;SDS011;12356;49.386;8.688;2022-09-13T03:30:06;4.13;;;3.72;;
24216;SDS011;12356;49.386;8.688;2022-09-13T03:40:36;5.47;;;4.05;;
24216;SDS011;12356;49.386;8.688;2022-09-13T03:43:31;4.72;;;3.70;;
24216;SDS011;12356;49.386;8.688;2022-09-13T03:46:06;6.03;;;4.07;;
24216;SDS011;12356;49.386;8.688;2022-09-13T03:48:41;5.88;;;4.18;;
24216;SDS011;12356;49.386;8.688;2022-09-13T03:51:13;5.85;;;3.95;;
24216;SDS011;12356;49.386;8.688;2022-09-13T03:53:48;5.70;;;4.00;;
24216;SDS011;12356;49.386;8.688;2022-09-13T03:56:27;7.63;;;3.88;;
24216;SDS011;12356;49.386;8.688;2022-09-13T03:58:58;8.68;;;3.92;;
24216;SDS011;12356;49.386;8.688;2022-09-13T04:01:29;6.10;;;3.60;;
24216;SDS011;12356;49.386;8.688;2022-09-13T04:04:00;9.32;;;3.95;;
24216;SDS011;12356;49.386;8.688;2022-09-13T04:06:30;7.28;;;4.10;;
24216;SDS011;12356;49.386;8.688;2022-09-13T04:09:01;8.77;;;3.85;;
24216;SDS011;12356;49.386;8.688;2022-09-13T04:11:32;9.02;;;3.88;;
24216;SDS011;12356;49.386;8.688;2022-09-13T04:14:02;6.13;;;3.90;;
24216;SDS011;12356;49.386;8.688;2022-09-13T04:16:34;4.65;;;4.18;;
24216;SDS011;12356;49.386;8.688;2022-09-13T04:19:04;6.53;;;3.90;;
24216;SDS011;12356;49.386;8.688;2022-09-13T04:21:35;6.57;;;4.10;;
24216;SDS011;12356;49.386;8.688;2022-09-13T04:24:07;7.35;;;3.80;;
24216;SDS011;12356;49.386;8.688;2022-09-13T04:26:37;5.47;;;4.00;;
24216;SDS011;12356;49.386;8.688;2022-09-13T04:29:08;6.95;;;3.80;;
24216;SDS011;12356;49.386;8.688;2022-09-13T04:31:40;8.07;;;4.07;;
24216;SDS011;12356;49.386;8.688;2022-09-13T04:34:11;4.53;;;3.88;;
24216;SDS011;12356;49.386;8.688;2022-09-13T04:36:41;6.45;;;3.90;;
24216;SDS011;12356;49.386;8.688;2022-09-13T04:39:12;6.90;;;4.13;;
24216;SDS011;12356;49.386;8.688;2022-09-13T04:41:43;6.07;;;4.10;;
24216;SDS011;12356;49.386;8.688;2022-09-13T04:44:16;5.50;;;4.22;;
24216;SDS011;12356;49.386;8.688;2022-09-13T04:46:47;6.90;;;4.00;;
24216;SDS011;12356;49.386;8.688;2022-09-13T04:49:18;5.75;;;4.10;;
24216;SDS011;12356;49.386;8.688;2022-09-13T04:51:49;5.10;;;3.75;;
24216;SDS011;12356;49.386;8.688;2022-09-13T04:54:20;4.72;;;4.00;;
24216;SDS011;12356;49.386;8.688;2022-09-13T04:56:51;7.20;;;4.00;;
24216;SDS011;12356;49.386;8.688;2022-09-13T04:59:22;5.35;;;3.88;;
24216;SDS011;12356;49.386;8.688;2022-09-13T05:01:52;6.68;;;4.10;;
24216;SDS011;12356;49.386;8.688;2022-09-13T05:04:23;7.88;;;4.07;;
24216;SDS011;12356;49.386;8.688;2022-09-13T05:06:53;5.40;;;4.45;;
24216;SDS011;12356;49.386;8.688;2022-09-13T05:09:24;7.20;;;4.18;;
24216;SDS011;12356;49.386;8.688;2022-09-13T05:11:54;6.53;;;4.25;;
24216;SDS011;12356;49.386;8.688;2022-09-13T05:14:25;9.52;;;4.13;;
24216;SDS011;12356;49.386;8.688;2022-09-13T05:16:56;8.43;;;4.05;;
24216;SDS011;12356;49.386;8.688;2022-09-13T05:19:26;6.57;;;3.80;;
24216;SDS011;12356;49.386;8.688;2022-09-13T05:21:57;8.55;;;4.50;;
24216;SDS011;12356;49.386;8.688;2022-09-13T05:24:28;6.53;;;4.32;;
24216;SDS011;12356;49.386;8.688;2022-09-13T05:26:58;5.72;;;3.85;;
24216;SDS011;12356;49.386;8.688;2022-09-13T05:29:29;7.50;;;4.30;;
24216;SDS011;12356;49.386;8.688;2022-09-13T05:31:59;6.70;;;4.95;;
24216;SDS011;12356;49.386;8.688;2022-09-13T05:34:30;7.38;;;4.45;;
24216;SDS011;12356;49.386;8.688;2022-09-13T05:37:01;7.25;;;4.28;;
24216;SDS011;12356;49.386;8.688;2022-09-13T05:39:32;5.80;;;4.45;;
24216;SDS011;12356;49.386;8.688;2022-09-13T05:42:03;6.32;;;4.55;;
24216;SDS011;12356;49.386;8.688;2022-09-13T05:44:33;9.60;;;4.85;;
24216;SDS011;12356;49.386;8.688;2022-09-13T05:47:04;12.90;;;4.57;;
24216;SDS011;12356;49.386;8.688;2022-09-13T05:49:35;6.82;;;4.38;;
24216;SDS011;12356;49.386;8.688;2022-09-13T05:52:05;8.15;;;4.13;;
24216;SDS011;12356;49.386;8.688;2022-09-13T05:54:36;14.93;;;4.93;;
24216;SDS011;12356;49.386;8.688;2022-09-13T05:57:07;8.90;;;5.13;;
24216;SDS011;12356;49.386;8.688;2022-09-13T05:59:37;8.18;;;4.97;;
24216;SDS011;12356;49.386;8.688;2022-09-13T06:02:08;11.02;;;4.80;;
24216;SDS011;12356;49.386;8.688;2022-09-13T06:04:39;8.05;;;4.60;;
24216;SDS011;12356;49.386;8.688;2022-09-13T06:07:12;8.23;;;5.10;;
24216;SDS011;12356;49.386;8.688;2022-09-13T06:09:43;6.30;;;4.50;;
24216;SDS011;12356;49.386;8.688;2022-09-13T06:12:14;8.60;;;4.60;;
24216;SDS011;12356;49.386;8.688;2022-09-13T06:14:44;7.60;;;4.57;;
24216;SDS011;12356;49.386;8.688;2022-09-13T06:17:15;8.13;;;4.70;;
24216;SDS011;12356;49.386;8.688;2022-09-13T06:19:46;6.13;;;4.50;;
24216;SDS011;12356;49.386;8.688;2022-09-13T06:22:16;9.20;;;5.20;;
24216;SDS011;12356;49.386;8.688;2022-09-13T06:24:47;8.45;;;5.20;;
24216;SDS011;12356;49.386;8.688;2022-09-13T06:27:18;9.95;;;5.50;;
24216;SDS011;12356;49.386;8.688;2022-09-13T06:29:48;10.23;;;5.00;;
24216;SDS011;12356;49.386;8.688;2022-09-13T06:32:19;8.98;;;5.50;;
24216;SDS011;12356;49.386;8.688;2022-09-13T06:34:49;13.02;;;4.90;;
24216;SDS011;12356;49.386;8.688;2022-09-13T06:37:20;10.27;;;4.90;;
24216;SDS011;12356;49.386;8.688;2022-09-13T06:39:51;7.95;;;4.60;;
24216;SDS011;12356;49.386;8.688;2022-09-13T06:42:21;10.68;;;5.32;;
24216;SDS011;12356;49.386;8.688;2022-09-13T06:44:52;8.88;;;5.50;;
24216;SDS011;12356;49.386;8.688;2022-09-13T06:47:23;9.18;;;4.93;;
24216;SDS011;12356;49.386;8.688;2022-09-13T06:49:53;7.47;;;4.85;;
24216;SDS011;12356;49.386;8.688;2022-09-13T06:52:24;8.95;;;4.70;;
24216;SDS011;12356;49.386;8.688;2022-09-13T06:54:55;9.02;;;4.85;;
24216;SDS011;12356;49.386;8.688;2022-09-13T06:57:25;7.60;;;4.68;;
24216;SDS011;12356;49.386;8.688;2022-09-13T06:59:59;6.20;;;4.47;;
24216;SDS011;12356;49.386;8.688;2022-09-13T07:02:30;10.45;;;4.53;;
24216;SDS011;12356;49.386;8.688;2022-09-13T07:05:01;18.23;;;6.10;;
24216;SDS011;12356;49.386;8.688;2022-09-13T07:07:32;12.10;;;5.40;;
24216;SDS011;12356;49.386;8.688;2022-09-13T07:10:03;9.05;;;4.63;;
24216;SDS011;12356;49.386;8.688;2022-09-13T07:12:34;15.68;;;5.22;;
24216;SDS011;12356;49.386;8.688;2022-09-13T07:15:04;18.58;;;5.20;;
24216;SDS011;12356;49.386;8.688;2022-09-13T07:17:35;14.90;;;6.10;;
24216;SDS011;12356;49.386;8.688;2022-09-13T07:20:06;22.05;;;6.13;;
24216;SDS011;12356;49.386;8.688;2022-09-13T07:22:37;12.75;;;5.57;;
24216;SDS011;12356;49.386;8.688;2022-09-13T07:25:08;9.60;;;5.55;;
24216;SDS011;12356;49.386;8.688;2022-09-13T07:27:39;9.98;;;4.82;;
24216;SDS011;12356;49.386;8.688;2022-09-13T07:30:11;7.90;;;4.70;;
24216;SDS011;12356;49.386;8.688;2022-09-13T07:32:41;8.70;;;5.22;;
24216;SDS011;12356;49.386;8.688;2022-09-13T07:35:12;9.05;;;4.75;;
24216;SDS011;12356;49.386;8.688;2022-09-13T07:37:42;8.88;;;4.70;;
24216;SDS011;12356;49.386;8.688;2022-09-13T07:40:15;10.80;;;4.63;;
24216;SDS011;12356;49.386;8.688;2022-09-13T07:42:46;7.47;;;4.22;;
24216;SDS011;12356;49.386;8.688;2022-09-13T07:45:16;10.30;;;4.47;;
24216;SDS011;12356;49.386;8.688;2022-09-13T07:47:47;9.88;;;3.92;;
24216;SDS011;12356;49.386;8.688;2022-09-13T07:50:18;7.65;;;4.65;;
24216;SDS011;12356;49.386;8.688;2022-09-13T07:52:48;13.10;;;4.68;;
24216;SDS011;12356;49.386;8.688;2022-09-13T07:55:19;12.20;;;5.07;;
24216;SDS011;12356;49.386;8.688;2022-09-13T07:57:50;5.97;;;4.72;;
24216;SDS011;12356;49.386;8.688;2022-09-13T08:00:21;7.97;;;4.43;;
24216;SDS011;12356;49.386;8.688;2022-09-13T08:02:53;7.88;;;4.65;;
24216;SDS011;12356;49.386;8.688;2022-09-13T08:05:23;12.40;;;5.00;;
24216;SDS011;12356;49.386;8.688;2022-09-13T08:07:54;10.05;;;4.63;;
24216;SDS011;12356;49.386;8.688;2022-09-13T08:10:24;7.22;;;4.00;;
24216;SDS011;12356;49.386;8.688;2022-09-13T08:12:55;6.88;;;4.40;;
24216;SDS011;12356;49.386;8.688;2022-09-13T08:15:26;8.68;;;4.60;;
24216;SDS011;12356;49.386;8.688;2022-09-13T08:17:57;6.97;;;4.90;;
24216;SDS011;12356;49.386;8.688;2022-09-13T08:20:28;23.13;;;5.43;;
24216;SDS011;12356;49.386;8.688;2022-09-13T08:22:58;18.58;;;5.20;;
24216;SDS011;12356;49.386;8.688;2022-09-13T08:25:30;13.15;;;5.32;;
24216;SDS011;12356;49.386;8.688;2022-09-13T08:28:09;10.13;;;4.95;;
24216;SDS011;12356;49.386;8.688;2022-09-13T08:30:46;14.73;;;6.65;;
24216;SDS011;12356;49.386;8.688;2022-09-13T08:33:17;9.60;;;5.32;;
24216;SDS011;12356;49.386;8.688;2022-09-13T08:35:49;10.15;;;5.38;;
24216;SDS011;12356;49.386;8.688;2022-09-13T08:38:24;11.63;;;5.40;;
24216;SDS011;12356;49.386;8.688;2022-09-13T08:40:59;10.70;;;5.50;;
24216;SDS011;12356;49.386;8.688;2022-09-13T08:54:41;12.73;;;5.75;;
24216;SDS011;12356;49.386;8.688;2022-09-13T08:57:14;15.63;;;5.40;;
24216;SDS011;12356;49.386;8.688;2022-09-13T09:05:52;9.88;;;5.70;;
24216;SDS011;12356;49.386;8.688;2022-09-13T09:10:54;7.63;;;5.75;;
24216;SDS011;12356;49.386;8.688;2022-09-13T09:13:29;9.50;;;5.65;;
24216;SDS011;12356;49.386;8.688;2022-09-13T09:16:24;7.65;;;5.25;;
24216;SDS011;12356;49.386;8.688;2022-09-13T09:19:02;7.63;;;5.03;;
24216;SDS011;12356;49.386;8.688;2022-09-13T09:21:46;10.15;;;5.63;;
24216;SDS011;12356;49.386;8.688;2022-09-13T09:24:23;6.50;;;4.72;;
24216;SDS011;12356;49.386;8.688;2022-09-13T09:26:55;7.32;;;4.28;;
24216;SDS011;12356;49.386;8.688;2022-09-13T09:29:30;10.13;;;5.18;;
24216;SDS011;12356;49.386;8.688;2022-09-13T09:37:27;6.72;;;4.68;;
24216;SDS011;12356;49.386;8.688;2022-09-13T09:40:02;7.47;;;4.97;;
24216;SDS011;12356;49.386;8.688;2022-09-13T09:42:46;7.07;;;4.63;;
24216;SDS011;12356;49.386;8.688;2022-09-13T09:48:06;4.95;;;4.38;;
24216;SDS011;12356;49.386;8.688;2022-09-13T09:50:43;5.57;;;4.30;;
24216;SDS011;12356;49.386;8.688;2022-09-13T09:53:22;5.18;;;4.28;;
24216;SDS011;12356;49.386;8.688;2022-09-13T09:56:19;7.75;;;4.30;;
24216;SDS011;12356;49.386;8.688;2022-09-13T09:58:54;5.78;;;4.45;;
24216;SDS011;12356;49.386;8.688;2022-09-13T10:01:29;6.00;;;4.18;;
24216;SDS011;12356;49.386;8.688;2022-09-13T10:04:05;8.48;;;4.25;;
24216;SDS011;12356;49.386;8.688;2022-09-13T10:06:41;7.53;;;5.28;;
24216;SDS011;12356;49.386;8.688;2022-09-13T10:14:29;7.57;;;4.25;;
24216;SDS011;12356;49.386;8.688;2022-09-13T10:17:24;9.18;;;4.30;;
24216;SDS011;12356;49.386;8.688;2022-09-13T10:19:57;8.68;;;4.65;;
24216;SDS011;12356;49.386;8.688;2022-09-13T10:22:33;6.13;;;4.10;;
24216;SDS011;12356;49.386;8.688;2022-09-13T10:27:54;5.30;;;3.60;;
24216;SDS011;12356;49.386;8.688;2022-09-13T10:30:32;4.15;;;3.20;;
24216;SDS011;12356;49.386;8.688;2022-09-13T10:35:59;5.88;;;3.40;;
24216;SDS011;12356;49.386;8.688;2022-09-13T10:38:36;9.35;;;3.78;;
24216;SDS011;12356;49.386;8.688;2022-09-13T10:41:10;7.32;;;4.40;;
24216;SDS011;12356;49.386;8.688;2022-09-13T10:43:56;6.32;;;4.30;;
24216;SDS011;12356;49.386;8.688;2022-09-13T10:46:33;8.55;;;4.15;;
24216;SDS011;12356;49.386;8.688;2022-09-13T10:49:08;6.60;;;4.30;;
24216;SDS011;12356;49.386;8.688;2022-09-13T11:00:22;10.75;;;3.58;;
24216;SDS011;12356;49.386;8.688;2022-09-13T11:06:35;5.13;;;3.58;;
24216;SDS011;12356;49.386;8.688;2022-09-13T11:09:09;4.97;;;3.55;;
24216;SDS011;12356;49.386;8.688;2022-09-13T11:29:10;7.22;;;3.53;;
24216;SDS011;12356;49.386;8.688;2022-09-13T11:31:51;12.27;;;4.15;;
24216;SDS011;12356;49.386;8.688;2022-09-13T11:34:44;5.07;;;3.08;;
24216;SDS011;12356;49.386;8.688;2022-09-13T11:57:03;7.38;;;3.22;;
24216;SDS011;12356;49.386;8.688;2022-09-13T12:02:23;3.63;;;3.08;;
24216;SDS011;12356;49.386;8.688;2022-09-13T12:05:22;4.07;;;2.95;;
24216;SDS011;12356;49.386;8.688;2022-09-13T12:08:05;7.68;;;3.00;;
24216;SDS011;12356;49.386;8.688;2022-09-13T12:10:50;7.10;;;2.97;;
24216;SDS011;12356;49.386;8.688;2022-09-13T12:13:31;4.00;;;3.13;;
24216;SDS011;12356;49.386;8.688;2022-09-13T12:16:11;4.13;;;3.05;;
24216;SDS011;12356;49.386;8.688;2022-09-13T12:18:46;7.13;;;3.25;;
24216;SDS011;12356;49.386;8.688;2022-09-13T12:21:20;6.43;;;3.17;;
24216;SDS011;12356;49.386;8.688;2022-09-13T12:24:00;6.60;;;3.03;;
24216;SDS011;12356;49.386;8.688;2022-09-13T12:29:23;5.28;;;3.08;;
24216;SDS011;12356;49.386;8.688;2022-09-13T12:32:11;6.60;;;2.75;;
24216;SDS011;12356;49.386;8.688;2022-09-13T12:34:44;5.72;;;3.00;;
24216;SDS011;12356;49.386;8.688;2022-09-13T12:43:22;9.02;;;2.92;;
24216;SDS011;12356;49.386;8.688;2022-09-13T12:48:41;4.00;;;2.70;;
24216;SDS011;12356;49.386;8.688;2022-09-13T12:57:07;4.32;;;2.80;;
24216;SDS011;12356;49.386;8.688;2022-09-13T12:59:51;3.58;;;2.63;;
24216;SDS011;12356;49.386;8.688;2022-09-13T13:02:40;6.35;;;2.80;;
24216;SDS011;12356;49.386;8.688;2022-09-13T13:05:27;9.10;;;3.00;;
24216;SDS011;12356;49.386;8.688;2022-09-13T13:08:03;4.80;;;2.80;;
24216;SDS011;12356;49.386;8.688;2022-09-13T13:10:38;8.00;;;3.05;;
24216;SDS011;12356;49.386;8.688;2022-09-13T13:13:18;9.88;;;2.95;;
24216;SDS011;12356;49.386;8.688;2022-09-13T13:15:55;5.03;;;3.05;;
24216;SDS011;12356;49.386;8.688;2022-09-13T13:18:28;5.80;;;3.10;;
24216;SDS011;12356;49.386;8.688;2022-09-13T13:21:17;6.38;;;2.92;;
24216;SDS011;12356;49.386;8.688;2022-09-13T13:26:47;6.60;;;3.00;;
24216;SDS011;12356;49.386;8.688;2022-09-13T13:29:21;5.43;;;3.08;;
24216;SDS011;12356;49.386;8.688;2022-09-13T13:34:35;6.05;;;3.20;;
24216;SDS011;12356;49.386;8.688;2022-09-13T13:39:42;5.75;;;3.25;;
24216;SDS011;12356;49.386;8.688;2022-09-13T13:42:25;5.95;;;3.20;;
24216;SDS011;12356;49.386;8.688;2022-09-13T13:45:03;9.32;;;3.30;;
24216;SDS011;12356;49.386;8.688;2022-09-13T13:53:50;10.80;;;3.47;;
24216;SDS011;12356;49.386;8.688;2022-09-13T13:56:34;6.85;;;3.03;;
24216;SDS011;12356;49.386;8.688;2022-09-13T13:59:24;6.05;;;3.22;;
24216;SDS011;12356;49.386;8.688;2022-09-13T14:01:56;4.95;;;3.40;;
24216;SDS011;12356;49.386;8.688;2022-09-13T14:04:37;10.02;;;4.10;;
24216;SDS011;12356;49.386;8.688;2022-09-13T14:10:17;5.82;;;3.38;;
24216;SDS011;12356;49.386;8.688;2022-09-13T14:13:28;9.63;;;3.60;;
24216;SDS011;12356;49.386;8.688;2022-09-13T14:16:20;7.30;;;3.22;;
24216;SDS011;12356;49.386;8.688;2022-09-13T14:22:04;4.40;;;3.03;;
24216;SDS011;12356;49.386;8.688;2022-09-13T14:24:47;8.45;;;3.20;;
24216;SDS011;12356;49.386;8.688;2022-09-13T14:27:26;3.22;;;2.63;;
24216;SDS011;12356;49.386;8.688;2022-09-13T14:30:14;3.85;;;2.70;;
24216;SDS011;12356;49.386;8.688;2022-09-13T14:32:53;4.53;;;2.70;;
24216;SDS011;12356;49.386;8.688;2022-09-13T14:35:26;5.82;;;2.20;;
24216;SDS011;12356;49.386;8.688;2022-09-13T14:38:17;3.05;;;2.00;;
24216;SDS011;12356;49.386;8.688;2022-09-13T14:40:51;6.82;;;2.78;;
24216;SDS011;12356;49.386;8.688;2022-09-13T14:43:24;3.35;;;2.20;;
24216;SDS011;12356;49.386;8.688;2022-09-13T14:46:02;4.10;;;1.90;;
24216;SDS011;12356;49.386;8.688;2022-09-13T14:48:57;5.90;;;2.15;;
24216;SDS011;12356;49.386;8.688;2022-09-13T14:51:32;2.00;;;1.80;;
24216;SDS011;12356;49.386;8.688;2022-09-13T14:54:07;2.55;;;1.30;;
24216;SDS011;12356;49.386;8.688;2022-09-13T14:56:47;2.65;;;1.23;;
24216;SDS011;12356;49.386;8.688;2022-09-13T14:59:24;2.17;;;1.40;;
24216;SDS011;12356;49.386;8.688;2022-09-13T15:02:04;1.85;;;1.35;;
24216;SDS011;12356;49.386;8.688;2022-09-13T15:04:38;4.70;;;2.75;;
24216;SDS011;12356;49.386;8.688;2022-09-13T15:07:19;6.88;;;3.17;;
24216;SDS011;12356;49.386;8.688;2022-09-13T15:10:41;3.60;;;2.45;;
24216;SDS011;12356;49.386;8.688;2022-09-13T15:12:48;5.82;;;2.53;;
24216;SDS011;12356;49.386;8.688;2022-09-13T15:15:39;5.15;;;2.55;;
24216;SDS011;12356;49.386;8.688;2022-09-13T15:20:56;3.45;;;2.40;;
24216;SDS011;12356;49.386;8.688;2022-09-13T15:26:04;3.35;;;1.90;;
24216;SDS011;12356;49.386;8.688;2022-09-13T15:31:27;2.47;;;1.92;;
24216;SDS011;12356;49.386;8.688;2022-09-13T15:34:10;3.63;;;1.80;;
24216;SDS011;12356;49.386;8.688;2022-09-13T15:39:46;4.80;;;1.67;;
24216;SDS011;12356;49.386;8.688;2022-09-13T15:42:19;2.75;;;2.10;;
24216;SDS011;12356;49.386;8.688;2022-09-13T15:44:49;5.40;;;3.00;;
24216;SDS011;12356;49.386;8.688;2022-09-13T15:47:20;4.53;;;3.50;;
24216;SDS011;12356;49.386;8.688;2022-09-13T15:49:51;5.78;;;3.80;;
24216;SDS011;12356;49.386;8.688;2022-09-13T15:52:21;4.85;;;4.00;;
24216;SDS011;12356;49.386;8.688;2022-09-13T15:54:52;6.38;;;3.10;;
24216;SDS011;12356;49.386;8.688;2022-09-13T15:57:25;9.00;;;3.80;;
24216;SDS011;12356;49.386;8.688;2022-09-13T15:59:57;6.03;;;3.10;;
24216;SDS011;12356;49.386;8.688;2022-09-13T16:02:30;5.40;;;2.55;;
24216;SDS011;12356;49.386;8.688;2022-09-13T16:05:02;5.43;;;2.53;;
24216;SDS011;12356;49.386;8.688;2022-09-13T16:07:32;6.55;;;2.00;;
24216;SDS011;12356;49.386;8.688;2022-09-13T16:10:06;2.42;;;2.10;;
24216;SDS011;12356;49.386;8.688;2022-09-13T16:12:41;2.75;;;1.80;;
24216;SDS011;12356;49.386;8.688;2022-09-13T16:15:12;6.75;;;2.00;;
24216;SDS011;12356;49.386;8.688;2022-09-13T16:17:43;2.80;;;1.98;;
24216;SDS011;12356;49.386;8.688;2022-09-13T16:20:14;7.93;;;2.20;;
24216;SDS011;12356;49.386;8.688;2022-09-13T16:22:46;3.33;;;1.92;;
24216;SDS011;12356;49.386;8.688;2022-09-13T16:25:16;3.13;;;1.98;;
24216;SDS011;12356;49.386;8.688;2022-09-13T16:27:47;7.63;;;2.38;;
24216;SDS011;12356;49.386;8.688;2022-09-13T16:30:19;5.10;;;2.10;;
24216;SDS011;12356;49.386;8.688;2022-09-13T16:32:51;4.65;;;2.20;;
24216;SDS011;12356;49.386;8.688;2022-09-13T16:35:21;3.90;;;2.10;;
24216;SDS011;12356;49.386;8.688;2022-09-13T16:37:56;5.93;;;2.30;;
24216;SDS011;12356;49.386;8.688;2022-09-13T16:40:27;2.20;;;2.00;;
24216;SDS011;12356;49.386;8.688;2022-09-13T16:42:58;3.97;;;2.40;;
24216;SDS011;12356;49.386;8.688;2022-09-13T16:45:28;3.60;;;2.35;;
24216;SDS011;12356;49.386;8.688;2022-09-13T16:47:59;3.67;;;2.20;;
24216;SDS011;12356;49.386;8.688;2022-09-13T16:50:30;4.75;;;2.40;;
24216;SDS011;12356;49.386;8.688;2022-09-13T16:53:01;4.88;;;2.40;;
24216;SDS011;12356;49.386;8.688;2022-09-13T16:55:32;2.53;;;2.20;;
24216;SDS011;12356;49.386;8.688;2022-09-13T16:58:02;4.78;;;2.45;;
24216;SDS011;12356;49.386;8.688;2022-09-13T17:00:33;3.33;;;2.25;;
24216;SDS011;12356;49.386;8.688;2022-09-13T17:03:03;2.80;;;2.33;;
24216;SDS011;12356;49.386;8.688;2022-09-13T17:05:34;3.63;;;2.10;;
24216;SDS011;12356;49.386;8.688;2022-09-13T17:08:05;5.47;;;2.38;;
24216;SDS011;12356;49.386;8.688;2022-09-13T17:10:36;6.95;;;2.03;;
24216;SDS011;12356;49.386;8.688;2022-09-13T17:13:07;3.35;;;2.13;;
24216;SDS011;12356;49.386;8.688;2022-09-13T17:15:38;3.80;;;2.20;;
24216;SDS011;12356;49.386;8.688;2022-09-13T17:18:09;6.07;;;2.30;;
24216;SDS011;12356;49.386;8.688;2022-09-13T17:20:46;4.30;;;2.17;;
24216;SDS011;12356;49.386;8.688;2022-09-13T17:23:18;4.75;;;2.60;;
24216;SDS011;12356;49.386;8.688;2022-09-13T17:25:49;5.65;;;3.22;;
24216;SDS011;12356;49.386;8.688;2022-09-13T17:28:21;6.40;;;3.80;;
24216;SDS011;12356;49.386;8.688;2022-09-13T17:30:51;10.15;;;3.53;;
24216;SDS011;12356;49.386;8.688;2022-09-13T17:33:22;4.65;;;2.80;;
24216;SDS011;12356;49.386;8.688;2022-09-13T17:35:59;4.03;;;2.65;;
24216;SDS011;12356;49.386;8.688;2022-09-13T17:38:37;6.70;;;2.70;;
24216;SDS011;12356;49.386;8.688;2022-09-13T17:41:09;6.57;;;2.60;;
24216;SDS011;12356;49.386;8.688;2022-09-13T17:43:42;5.63;;;2.50;;
24216;SDS011;12356;49.386;8.688;2022-09-13T17:46:14;2.93;;;2.63;;
24216;SDS011;12356;49.386;8.688;2022-09-13T17:48:47;8.32;;;2.83;;
24216;SDS011;12356;49.386;8.688;2022-09-13T17:53:52;5.68;;;2.50;;
24216;SDS011;12356;49.386;8.688;2022-09-13T17:56:28;5.45;;;2.45;;
24216;SDS011;12356;49.386;8.688;2022-09-13T17:59:05;5.85;;;2.60;;
24216;SDS011;12356;49.386;8.688;2022-09-13T18:01:47;8.88;;;2.40;;
24216;SDS011;12356;49.386;8.688;2022-09-13T18:04:22;3.55;;;1.95;;
24216;SDS011;12356;49.386;8.688;2022-09-13T18:06:52;4.57;;;2.15;;
24216;SDS011;12356;49.386;8.688;2022-09-13T18:09:23;5.15;;;2.20;;
24216;SDS011;12356;49.386;8.688;2022-09-13T18:11:55;6.37;;;2.00;;
24216;SDS011;12356;49.386;8.688;2022-09-13T18:14:25;5.05;;;2.60;;
24216;SDS011;12356;49.386;8.688;2022-09-13T18:16:56;4.90;;;2.10;;
24216;SDS011;12356;49.386;8.688;2022-09-13T18:19:28;4.32;;;2.40;;
24216;SDS011;12356;49.386;8.688;2022-09-13T18:21:58;4.32;;;2.42;;
24216;SDS011;12356;49.386;8.688;2022-09-13T18:24:30;4.07;;;2.30;;
24216;SDS011;12356;49.386;8.688;2022-09-13T18:27:02;5.82;;;2.75;;
24216;SDS011;12356;49.386;8.688;2022-09-13T18:29:33;8.00;;;2.50;;
24216;SDS011;12356;49.386;8.688;2022-09-13T18:32:04;6.45;;;2.65;;
24216;SDS011;12356;49.386;8.688;2022-09-13T18:34:34;6.05;;;2.45;;
24216;SDS011;12356;49.386;8.688;2022-09-13T18:37:05;4.72;;;2.45;;
24216;SDS011;12356;49.386;8.688;2022-09-13T18:39:36;4.97;;;2.65;;
24216;SDS011;12356;49.386;8.688;2022-09-13T18:42:07;5.22;;;2.40;;
24216;SDS011;12356;49.386;8.688;2022-09-13T18:44:37;5.70;;;2.70;;